Pagina principale
METAR-TAF:

METAR-TAF

Aeroporti :

Adıyaman, Turchia

latitudine: 37-43-54N, longitudine: 38-28-08E, altezza: 675 m

Osservazione

Il bollettino è stato emesso 13 ore e 50 minuti fa, alle 12:50 UTC
Vento 5 kt da sud/sud-est, variando fra est/nord-est e sud
Temperature 29°C
Umidità 13%
Pressione 1017 hPa
Visibilità 10 km o più
nessuna nube inferiore a 1500 m e nessun cumulonembo

METAR: LTCP 241250Z 15005KT 060V190 CAVOK 29/M02 Q1017

Ora: 05:40 (02:40 UTC)

Previsione

Il bollettino è stato emesso 1 ora e 0 minuti fa, alle 01:40 UTC
Previsione valida dal 25 alle 03 UTC al 25 alle 12 UTC
Vento 2 kt da direzioni variabili
Visibilità 10 km o più
nessuna nube inferiore a 1500 m e nessun cumulonembo
Evoluzione graduale
dal 25 alle 09 UTC al 25 alle 10 UTC
Poco nuvoloso ad un'altezza di 4000 ft
Nubi sparse ad un'altezza di 20000 ft

TAF: LTCP 250140Z 2503/2512 VRB02KT CAVOK BECMG 2509/2510 FEW040 SCT200

Osservazioni e previsioni meteorologiche di più di 4000 aeroporti (messaggi METAR e TAF).

Le stazioni disponibili sono rappresentate dai dischi gialli e rossi sulla carta.

Puntare il mouse per vedere il nome della stazione.

Clicca sopra per visualizzare le osservazioni e previsioni meteorologiche.

Per cambiare la mappa : fare clic sui pulsanti verdi con una croce nera per ingrandire, il pulsante verde con un trattino per diminuire, o sulla freccia verde per le mappe adiacenti.


METAR-TAF: